ADDS TAF Board (Experimental) INFO

IDs: Format: Expanded Condensed

Updated at: 2058 UTC 27 Jan 2015

KSFO - San Francisco Intl, CA, US

Issued at 2000 UTC 27 Jan 2015
Time1956Z27/21Z27/22Z27/23Z28/00Z28/01Z28/02Z28/03Z28/04Z28/05Z28/06Z28/07Z28/08Z28/09Z
TypeOBSPRVLPRVLPRVLPRVLPRVLPRVLPRVLPRVLPRVLPRVLPRVLPRVLPRVL
VIS10>6>6>6>6>6>6>6>6>6>6>6>6>6
CIG100100100100100100100100100150150150----
CoverOVCOVCOVCOVCOVCOVCBKNBKNBKNBKNBKNBKNSCTSCT
FltCat--VFRVFRVFRVFRVFRVFRVFRVFRVFRVFRVFRVFRVFR
WX----------------------------
WDir101010101010210210210VRBVRBVRBVRBVRB
WSpd88888866600000
WGst----------------------------
R01/19
XWnd222222000VRBVRBVRBVRBVRB
HWnd888888-6-6-6VRBVRBVRBVRBVRB
R10/28
XWnd888888-6-6-6VRBVRBVRBVRBVRB
HWnd-2-2-2-2-2-2-0-0-0VRBVRBVRBVRBVRB
Raw TAF
KSFO 272000Z 2720/2824 01008KT P6SM FEW070 OVC100
  FM280200 21006KT P6SM BKN100
  FM280500 00000KT P6SM BKN150
  FM280800 00000KT P6SM SCT150


Raw METAR
KSFO 271956Z 01008KT 10SM FEW070 OVC100 16/11 A3019 RMK AO2 SLP224 T01610111

TAF Board Legend

Hazard VFR MVFR IFR LIFR
Visibility (sm) >5 3≤X≤5 1≤X<3 <1
Ceiling (100 ft) >30 10≤X≤30 5≤X<10 <5
Wind Speed (kt) <10 10≤X<20 20≤X<30 ≥30
Wind Gust (kt) <15 15≤X<25 25≤X<35 ≥35
Weather No Wx Reported VCTS,-TS,-FZRA TS,FZRA +TS,+FZRA


Page loaded:  20:58 UTC  |   12:58 PM Pacific  |   01:58 PM Mountain  |   02:58 PM Central  |   03:58 PM Eastern

 

ADVISORIES

FORECASTS

FORECASTS

OBSERVATIONS

USER TOOLS

ABOUT US